createdAt,value
2018-03-16T00:00:27.453Z,71.29
2018-03-16T00:02:55.163Z,71.21
2018-03-16T00:05:22.990Z,71.73
2018-03-16T00:07:50.791Z,71.55
2018-03-16T00:10:18.658Z,73.12
2018-03-16T00:12:46.362Z,73.17
2018-03-16T00:15:14.085Z,73.93
2018-03-16T00:17:41.769Z,71.61
2018-03-16T00:20:09.379Z,71.36
2018-03-16T00:22:38.920Z,71.31
2018-03-16T00:25:06.560Z,70.73
2018-03-16T00:27:34.212Z,71.45
2018-03-16T00:30:01.823Z,71.75
2018-03-16T00:32:29.472Z,71.34
2018-03-16T00:34:57.088Z,72.18
2018-03-16T00:37:24.893Z,73.31
2018-03-16T00:39:52.648Z,73.53
2018-03-16T00:42:20.517Z,74.40
2018-03-16T00:44:48.486Z,74.09
2018-03-16T00:47:16.452Z,73.89
2018-03-16T00:49:44.109Z,74.16
2018-03-16T00:52:11.825Z,74.24
2018-03-16T00:54:39.544Z,72.91
2018-03-16T00:57:07.511Z,74.31
2018-03-16T00:59:35.221Z,74.23
2018-03-16T01:02:03.039Z,73.98
2018-03-16T01:04:30.757Z,73.71
2018-03-16T01:06:58.566Z,73.38
2018-03-16T01:09:26.176Z,73.71
2018-03-16T01:11:53.832Z,74.25
2018-03-16T01:14:21.656Z,75.64
2018-03-16T01:16:49.535Z,75.17
2018-03-16T01:19:17.232Z,75.98
2018-03-16T01:21:44.994Z,74.62
2018-03-16T01:24:12.916Z,74.87
2018-03-16T01:26:40.739Z,75.12
2018-03-16T01:29:08.553Z,75.47
2018-03-16T01:31:36.315Z,76.43
2018-03-16T01:34:04.030Z,77.18
2018-03-16T01:36:31.778Z,76.93
2018-03-16T01:38:59.608Z,75.89
2018-03-16T01:41:27.549Z,74.74
2018-03-16T01:43:55.337Z,73.46
2018-03-16T01:46:23.166Z,73.33
2018-03-16T01:48:50.969Z,74.28
2018-03-16T01:51:18.700Z,74.89
2018-03-16T01:53:46.496Z,74.69
2018-03-16T01:56:14.370Z,75.07
2018-03-16T01:58:42.026Z,74.89
2018-03-16T02:01:09.891Z,75.01
2018-03-16T02:03:37.609Z,75.16
2018-03-16T02:06:05.523Z,75.49
2018-03-16T02:08:33.275Z,75.65
2018-03-16T02:11:00.996Z,75.84
2018-03-16T02:13:28.815Z,76.12
2018-03-16T02:15:56.681Z,76.07
2018-03-16T02:18:24.524Z,75.70
2018-03-16T02:20:52.416Z,76.01
2018-03-16T02:23:20.293Z,76.27
2018-03-16T02:25:48.148Z,76.25
2018-03-16T02:28:15.964Z,75.77
2018-03-16T02:30:43.826Z,75.62
2018-03-16T02:33:11.816Z,76.46
2018-03-16T02:35:39.511Z,76.10
2018-03-16T02:38:07.232Z,75.94
2018-03-16T02:40:35.065Z,74.64
2018-03-16T02:43:02.922Z,74.93
2018-03-16T02:45:30.564Z,74.45
2018-03-16T02:47:58.337Z,74.02
2018-03-16T02:50:25.999Z,73.66
2018-03-16T02:52:53.854Z,74.60
2018-03-16T02:55:21.589Z,74.14
2018-03-16T02:57:49.395Z,74.11
2018-03-16T03:00:17.101Z,72.97
2018-03-16T03:02:44.963Z,72.96
2018-03-16T03:05:12.676Z,74.06
2018-03-16T03:07:40.448Z,74.28
2018-03-16T03:10:08.214Z,74.37
2018-03-16T03:12:36.035Z,74.26
2018-03-16T03:15:03.946Z,73.99
2018-03-16T03:17:31.781Z,73.13
2018-03-16T03:19:59.576Z,72.91
2018-03-16T03:22:27.552Z,72.58
2018-03-16T03:24:55.322Z,73.33
2018-03-16T03:27:23.152Z,75.86
2018-03-16T03:29:50.900Z,75.89
2018-03-16T03:32:18.809Z,74.94
2018-03-16T03:34:46.462Z,74.37
2018-03-16T03:37:14.233Z,73.76
2018-03-16T03:39:41.968Z,74.02
2018-03-16T03:42:09.719Z,73.26
2018-03-16T03:44:37.476Z,73.27
2018-03-16T03:47:05.286Z,73.66
2018-03-16T03:49:33.000Z,74.84
2018-03-16T03:52:00.719Z,75.62
2018-03-16T03:54:28.439Z,76.73
2018-03-16T03:56:56.250Z,76.07
2018-03-16T03:59:23.964Z,76.97
2018-03-16T04:01:51.774Z,79.56
2018-03-16T04:04:19.750Z,80.84
2018-03-16T04:06:47.562Z,82.04
2018-03-16T04:09:15.375Z,81.36
2018-03-16T04:11:43.222Z,80.44
2018-03-16T04:14:11.106Z,79.37
2018-03-16T04:16:38.953Z,77.53
2018-03-16T04:19:06.737Z,76.57
2018-03-16T04:21:34.707Z,75.84
2018-03-16T04:24:02.430Z,75.88
2018-03-16T04:26:30.235Z,75.32
2018-03-16T04:28:57.966Z,74.96
2018-03-16T04:31:25.725Z,74.75
2018-03-16T04:33:53.422Z,74.76
2018-03-16T04:36:21.134Z,74.33
2018-03-16T04:38:48.899Z,73.79
2018-03-16T04:41:16.821Z,73.92
2018-03-16T04:43:44.640Z,75.76
2018-03-16T04:46:12.458Z,78.82
2018-03-16T04:48:40.315Z,79.22
2018-03-16T04:51:08.032Z,77.08
2018-03-16T04:53:35.802Z,76.94
2018-03-16T04:56:03.611Z,76.02
2018-03-16T04:58:31.477Z,74.86
2018-03-16T05:00:59.243Z,74.88
2018-03-16T05:03:26.906Z,74.53
2018-03-16T05:05:54.517Z,74.27
2018-03-16T05:08:22.177Z,73.31
2018-03-16T05:10:49.816Z,73.91
2018-03-16T05:13:17.481Z,74.06
2018-03-16T05:15:45.148Z,73.45
2018-03-16T05:18:12.981Z,73.77
2018-03-16T05:20:40.817Z,74.78
2018-03-16T05:23:08.505Z,74.68
2018-03-16T05:25:36.372Z,74.01
2018-03-16T05:28:04.239Z,73.89
2018-03-16T05:30:32.011Z,74.33
2018-03-16T05:32:59.981Z,73.40
2018-03-16T05:35:27.943Z,73.48
2018-03-16T05:37:55.918Z,73.30
2018-03-16T05:40:23.644Z,72.72
2018-03-16T05:42:51.644Z,72.78
2018-03-16T05:45:19.590Z,73.32
2018-03-16T05:47:47.582Z,73.72
2018-03-16T05:50:15.455Z,75.31
2018-03-16T05:52:43.262Z,76.36
2018-03-16T05:55:11.083Z,77.35
2018-03-16T05:57:38.945Z,75.88
2018-03-16T06:00:06.665Z,74.25
2018-03-16T06:02:34.476Z,74.04
2018-03-16T06:05:02.239Z,75.31
2018-03-16T06:07:30.187Z,75.61
2018-03-16T06:09:57.890Z,74.83
2018-03-16T06:12:25.734Z,73.78
2018-03-16T06:14:53.608Z,73.07
2018-03-16T06:17:21.471Z,72.91
2018-03-16T06:19:49.195Z,73.05
2018-03-16T06:22:17.009Z,72.98
2018-03-16T06:24:44.851Z,73.03
2018-03-16T06:27:12.631Z,72.83
2018-03-16T06:29:40.338Z,72.99
2018-03-16T06:32:08.163Z,73.27
2018-03-16T06:34:35.869Z,74.18
2018-03-16T06:37:03.583Z,74.55
2018-03-16T06:39:31.343Z,74.79
2018-03-16T06:41:59.069Z,74.87
2018-03-16T06:44:26.845Z,75.31
2018-03-16T06:46:54.641Z,75.51
2018-03-16T06:49:22.621Z,75.28
2018-03-16T06:51:50.304Z,74.91
2018-03-16T06:54:18.221Z,74.60
2018-03-16T06:56:46.005Z,74.21
2018-03-16T06:59:13.918Z,74.38
2018-03-16T07:01:41.597Z,73.79
2018-03-16T07:04:09.399Z,73.16
2018-03-16T07:06:37.164Z,72.63
2018-03-16T07:09:05.030Z,73.51
2018-03-16T07:11:32.887Z,75.57
2018-03-16T07:14:00.764Z,76.22
2018-03-16T07:16:28.480Z,74.69
2018-03-16T07:18:56.287Z,72.90
2018-03-16T07:21:24.133Z,71.88
2018-03-16T07:23:51.896Z,71.26
2018-03-16T07:26:19.567Z,71.12
2018-03-16T07:28:47.345Z,70.47
2018-03-16T07:31:15.168Z,71.32
2018-03-16T07:33:42.981Z,71.25
2018-03-16T07:36:10.702Z,69.97
2018-03-16T07:38:38.511Z,70.57
2018-03-16T07:41:06.133Z,70.85
2018-03-16T07:43:33.935Z,69.81
2018-03-16T07:46:03.544Z,70.62
2018-03-16T07:48:31.419Z,71.09
2018-03-16T07:50:59.276Z,70.51
2018-03-16T07:53:27.143Z,69.90
2018-03-16T07:55:54.909Z,70.18
2018-03-16T07:58:22.773Z,70.24
2018-03-16T08:00:50.537Z,70.55
2018-03-16T08:03:18.405Z,70.00
2018-03-16T08:05:46.125Z,70.01
2018-03-16T08:08:13.873Z,69.45
2018-03-16T08:10:41.697Z,69.25
2018-03-16T08:13:09.480Z,68.67
2018-03-16T08:15:37.327Z,69.79
2018-03-16T08:18:05.092Z,70.76
2018-03-16T08:20:32.798Z,73.96
2018-03-16T08:23:00.522Z,75.31
2018-03-16T08:25:28.181Z,76.00
2018-03-16T08:27:56.150Z,75.14
2018-03-16T08:30:24.015Z,73.08
2018-03-16T08:32:51.833Z,72.06
2018-03-16T08:35:19.651Z,68.34
2018-03-16T08:37:47.413Z,67.14
2018-03-16T08:40:15.267Z,67.13
2018-03-16T08:42:43.101Z,65.73
2018-03-16T08:45:10.761Z,65.61
2018-03-16T08:47:38.431Z,66.62
2018-03-16T08:50:06.316Z,69.68
2018-03-16T08:52:34.098Z,69.75
2018-03-16T08:55:02.272Z,67.55
2018-03-16T08:57:30.040Z,68.25
2018-03-16T08:59:58.012Z,68.21
2018-03-16T09:02:25.771Z,67.85
2018-03-16T09:04:53.717Z,65.76
2018-03-16T09:07:21.608Z,63.99
2018-03-16T09:09:49.380Z,62.52
2018-03-16T09:12:17.135Z,61.94
2018-03-16T09:14:45.130Z,61.14
2018-03-16T09:17:12.873Z,62.65
2018-03-16T09:19:40.761Z,63.50
2018-03-16T09:22:08.538Z,63.22
2018-03-16T09:24:36.367Z,62.59
2018-03-16T09:27:04.027Z,63.67
2018-03-16T09:29:31.857Z,63.64
2018-03-16T09:31:59.562Z,64.64
2018-03-16T09:34:27.371Z,64.69
2018-03-16T09:36:55.004Z,64.49
2018-03-16T09:39:22.681Z,64.42
2018-03-16T09:41:50.312Z,63.45
2018-03-16T09:44:18.072Z,64.85
2018-03-16T09:46:45.835Z,63.86
2018-03-16T09:49:13.809Z,62.49
2018-03-16T09:51:41.529Z,64.02
2018-03-16T09:54:09.527Z,65.64
2018-03-16T09:56:37.510Z,66.32
2018-03-16T09:59:05.342Z,66.12
2018-03-16T10:01:33.023Z,65.71
2018-03-16T10:04:00.870Z,65.62
2018-03-16T10:06:28.667Z,65.39
2018-03-16T10:08:56.534Z,66.28
2018-03-16T10:11:24.264Z,65.58
2018-03-16T10:13:52.163Z,66.34
2018-03-16T10:16:19.900Z,66.99
2018-03-16T10:18:47.588Z,65.94
2018-03-16T10:21:15.354Z,67.39
2018-03-16T10:23:43.110Z,66.42
2018-03-16T10:26:10.833Z,67.32
2018-03-16T10:28:38.759Z,68.39
2018-03-16T10:31:06.486Z,68.01
2018-03-16T10:33:34.283Z,69.00
2018-03-16T10:36:01.998Z,68.68
2018-03-16T10:38:29.823Z,69.02
2018-03-16T10:40:57.461Z,69.82
2018-03-16T10:43:25.247Z,70.27
2018-03-16T10:45:53.099Z,70.06
2018-03-16T10:48:20.863Z,71.30
2018-03-16T10:50:48.580Z,71.17
2018-03-16T10:53:16.293Z,72.29
2018-03-16T10:55:44.053Z,71.90
2018-03-16T10:58:12.051Z,71.16
2018-03-16T11:00:45.508Z,69.24
2018-03-16T11:03:15.174Z,67.90
2018-03-16T11:05:48.622Z,66.73
2018-03-16T11:08:21.920Z,66.46
2018-03-16T11:10:49.647Z,68.01
2018-03-16T11:13:17.452Z,64.73
2018-03-16T11:15:45.219Z,66.57
2018-03-16T11:18:13.084Z,62.59
2018-03-16T11:20:40.849Z,63.51
2018-03-16T11:23:08.521Z,62.98
2018-03-16T11:25:36.377Z,61.44
2018-03-16T11:28:04.139Z,62.96
2018-03-16T11:30:31.896Z,62.94
2018-03-16T11:32:59.668Z,64.05
2018-03-16T11:35:27.532Z,61.12
2018-03-16T11:37:55.255Z,64.12
2018-03-16T11:40:23.164Z,60.52
2018-03-16T11:42:50.790Z,60.30
2018-03-16T11:45:18.467Z,59.06
2018-03-16T11:47:46.099Z,57.87
2018-03-16T11:50:13.773Z,57.56
2018-03-16T11:52:41.394Z,58.79
2018-03-16T11:55:09.050Z,61.12
2018-03-16T11:57:36.720Z,63.77
2018-03-16T12:00:04.406Z,65.24
2018-03-16T12:02:32.020Z,63.83
2018-03-16T12:04:59.672Z,66.12
2018-03-16T12:07:27.276Z,65.42
2018-03-16T12:09:54.955Z,63.73
2018-03-16T12:12:22.565Z,64.56
2018-03-16T12:14:50.225Z,65.76
2018-03-16T12:17:17.839Z,63.68
2018-03-16T12:19:45.489Z,63.20
2018-03-16T12:22:13.099Z,63.05
2018-03-16T12:24:40.788Z,66.15
2018-03-16T12:27:08.397Z,66.26
2018-03-16T12:29:36.573Z,66.18
2018-03-16T12:32:04.370Z,65.89
2018-03-16T12:34:32.134Z,61.90
2018-03-16T12:36:59.821Z,62.40
2018-03-16T12:39:27.766Z,61.44
2018-03-16T12:41:55.493Z,55.80
2018-03-16T12:44:23.248Z,54.10
2018-03-16T12:46:51.057Z,55.60
2018-03-16T12:49:18.762Z,52.85
2018-03-16T12:51:46.691Z,52.29
2018-03-16T12:54:14.340Z,54.77
2018-03-16T12:56:42.148Z,51.53
2018-03-16T12:59:10.083Z,51.29
2018-03-16T13:01:37.848Z,49.33
2018-03-16T13:04:05.782Z,51.20
2018-03-16T13:06:33.389Z,53.19
2018-03-16T13:09:01.349Z,57.90
2018-03-16T13:11:29.023Z,59.61
2018-03-16T13:13:56.874Z,61.27
2018-03-16T13:16:24.640Z,64.43
2018-03-16T13:18:52.310Z,65.96
2018-03-16T13:21:20.521Z,66.36
2018-03-16T13:23:48.452Z,66.28
2018-03-16T13:26:16.310Z,64.51
2018-03-16T13:28:44.282Z,65.69
2018-03-16T13:31:12.117Z,62.83
2018-03-16T13:33:40.019Z,59.88
2018-03-16T13:36:07.984Z,59.39
2018-03-16T13:38:35.851Z,62.58
2018-03-16T13:41:03.667Z,62.82
2018-03-16T13:43:31.480Z,62.61
2018-03-16T13:45:59.251Z,60.75
2018-03-16T13:48:27.008Z,59.55
2018-03-16T13:50:54.654Z,56.58
2018-03-16T13:53:22.435Z,56.23
2018-03-16T13:55:50.427Z,57.20
2018-03-16T13:58:18.169Z,58.57
2018-03-16T14:00:45.832Z,57.32
2018-03-16T14:03:13.534Z,58.08
2018-03-16T14:05:41.349Z,58.58
2018-03-16T14:08:09.122Z,59.93
2018-03-16T14:10:36.990Z,60.29
2018-03-16T14:13:04.764Z,59.34
2018-03-16T14:15:32.520Z,59.37
2018-03-16T14:18:00.590Z,59.59
2018-03-16T14:20:28.399Z,65.09
2018-03-16T14:22:56.010Z,65.82
2018-03-16T14:25:23.650Z,67.84
2018-03-16T14:27:51.253Z,69.20
2018-03-16T14:30:18.925Z,69.17
2018-03-16T14:32:46.536Z,69.35
2018-03-16T14:35:14.413Z,70.71
2018-03-16T14:37:41.917Z,70.39
2018-03-16T14:40:09.579Z,68.65
2018-03-16T14:42:37.207Z,69.07
2018-03-16T14:45:04.880Z,68.94
2018-03-16T14:47:32.488Z,69.41
2018-03-16T14:50:00.149Z,69.89
2018-03-16T14:52:27.799Z,68.48
2018-03-16T14:54:55.474Z,67.83
2018-03-16T14:57:23.282Z,67.69
2018-03-16T14:59:51.233Z,67.00
2018-03-16T15:02:19.019Z,65.62
2018-03-16T15:04:46.850Z,65.52
2018-03-16T15:07:14.783Z,66.10
2018-03-16T15:09:42.625Z,65.95
2018-03-16T15:12:10.236Z,65.15
2018-03-16T15:14:38.049Z,64.98
2018-03-16T15:17:05.703Z,63.88
2018-03-16T15:19:33.450Z,64.56
2018-03-16T15:22:01.231Z,62.37
2018-03-16T15:24:29.098Z,61.86
2018-03-16T15:26:56.816Z,62.49
2018-03-16T15:29:24.631Z,63.32
2018-03-16T15:31:52.390Z,62.96
2018-03-16T15:34:20.257Z,62.94
2018-03-16T15:36:47.857Z,63.09
2018-03-16T15:39:15.672Z,61.98
2018-03-16T15:41:43.297Z,64.08
2018-03-16T15:44:10.956Z,62.98
2018-03-16T15:46:38.619Z,62.44
2018-03-16T15:49:06.278Z,63.35
2018-03-16T15:51:33.928Z,63.40
2018-03-16T15:54:01.540Z,63.62
2018-03-16T15:56:29.197Z,62.86
2018-03-16T15:58:56.819Z,64.66
2018-03-16T16:01:24.469Z,64.13
2018-03-16T16:03:52.109Z,65.58
2018-03-16T16:06:19.768Z,64.38
2018-03-16T16:08:47.395Z,65.13
2018-03-16T16:11:15.060Z,66.23
2018-03-16T16:13:42.718Z,66.49
2018-03-16T16:16:10.382Z,66.41
2018-03-16T16:18:37.988Z,64.74
2018-03-16T16:21:05.640Z,65.51
2018-03-16T16:23:33.271Z,66.36
2018-03-16T16:26:00.921Z,64.49
2018-03-16T16:28:28.524Z,64.65
2018-03-16T16:30:56.185Z,64.25
2018-03-16T16:33:23.796Z,65.12
2018-03-16T16:35:51.439Z,66.18
2018-03-16T16:38:19.068Z,66.05
2018-03-16T16:40:46.719Z,66.51
2018-03-16T16:43:14.338Z,65.91
2018-03-16T16:45:42.000Z,66.96
2018-03-16T16:48:09.626Z,66.85
2018-03-16T16:50:37.268Z,67.14
2018-03-16T16:53:04.888Z,66.32
2018-03-16T16:55:32.564Z,66.51
2018-03-16T16:58:00.179Z,67.98
2018-03-16T17:00:27.860Z,67.90
2018-03-16T17:02:55.480Z,68.74
2018-03-16T17:05:23.141Z,67.50
2018-03-16T17:07:50.765Z,67.89
2018-03-16T17:10:18.428Z,69.65
2018-03-16T17:12:46.049Z,69.54
2018-03-16T17:15:13.701Z,69.00
2018-03-16T17:17:41.309Z,67.19
2018-03-16T17:20:09.028Z,67.41
2018-03-16T17:22:36.697Z,67.30
2018-03-16T17:25:04.353Z,67.19
2018-03-16T17:27:31.959Z,66.92
2018-03-16T17:29:59.678Z,66.42
2018-03-16T17:32:27.289Z,66.97
2018-03-16T17:34:54.965Z,66.01
2018-03-16T17:37:22.568Z,65.20
2018-03-16T17:39:50.216Z,65.84
2018-03-16T17:42:17.837Z,65.33
2018-03-16T17:44:45.491Z,66.38
2018-03-16T17:47:13.140Z,65.22
2018-03-16T17:49:40.797Z,64.85
2018-03-16T17:52:08.449Z,65.16
2018-03-16T17:54:36.068Z,65.78
2018-03-16T17:57:03.761Z,66.20
2018-03-16T17:59:31.370Z,65.94
2018-03-16T18:01:59.030Z,66.89
2018-03-16T18:04:26.646Z,66.26
2018-03-16T18:06:54.299Z,66.74
2018-03-16T18:09:21.916Z,66.50
2018-03-16T18:11:49.619Z,66.54
2018-03-16T18:14:17.240Z,68.74
2018-03-16T18:16:44.976Z,69.41
2018-03-16T18:19:12.794Z,69.21
2018-03-16T18:21:40.649Z,68.50
2018-03-16T18:24:08.480Z,69.07
2018-03-16T18:26:36.188Z,69.99
2018-03-16T18:29:03.943Z,68.56
2018-03-16T18:31:31.714Z,68.96
2018-03-16T18:33:59.687Z,68.81
2018-03-16T18:36:27.437Z,71.00
2018-03-16T18:38:55.152Z,71.70
2018-03-16T18:41:22.968Z,72.38
2018-03-16T18:43:50.834Z,73.21
2018-03-16T18:46:18.778Z,73.14
2018-03-16T18:48:46.569Z,74.06
2018-03-16T18:51:14.437Z,73.69
2018-03-16T18:53:42.200Z,74.21
2018-03-16T18:56:10.132Z,74.64
2018-03-16T18:58:38.033Z,75.58
2018-03-16T19:01:05.903Z,75.69
2018-03-16T19:03:33.872Z,76.68
2018-03-16T19:06:01.583Z,76.90
2018-03-16T19:08:29.429Z,77.35
2018-03-16T19:10:57.268Z,78.03
2018-03-16T19:13:24.928Z,77.42
2018-03-16T19:15:52.585Z,77.12
2018-03-16T19:18:20.358Z,76.35
2018-03-16T19:20:48.176Z,75.67
2018-03-16T19:23:15.985Z,76.47
2018-03-16T19:25:43.958Z,78.32
2018-03-16T19:28:11.684Z,80.55
2018-03-16T19:30:39.624Z,80.43
2018-03-16T19:33:07.480Z,79.98
2018-03-16T19:35:35.319Z,80.53
2018-03-16T19:38:03.085Z,80.72
2018-03-16T19:40:30.847Z,80.06
2018-03-16T19:42:58.611Z,80.02
2018-03-16T19:45:26.377Z,79.74
2018-03-16T19:47:54.247Z,80.93
2018-03-16T19:50:22.038Z,82.58
2018-03-16T19:52:49.771Z,81.86
2018-03-16T19:55:17.637Z,82.21
2018-03-16T19:57:45.505Z,83.77
2018-03-16T20:00:13.371Z,83.76
2018-03-16T20:02:41.404Z,83.36
2018-03-16T20:05:09.310Z,83.52
2018-03-16T20:07:37.183Z,83.68
2018-03-16T20:10:04.839Z,83.81
2018-03-16T20:12:32.568Z,83.28
2018-03-16T20:15:00.261Z,83.45
2018-03-16T20:17:28.126Z,82.95
2018-03-16T20:19:55.850Z,83.52
2018-03-16T20:22:23.660Z,82.37
2018-03-16T20:24:51.424Z,82.21
2018-03-16T20:27:19.472Z,81.50
2018-03-16T20:29:47.208Z,81.67
2018-03-16T20:32:15.025Z,81.63
2018-03-16T20:34:42.790Z,80.95
2018-03-16T20:37:10.581Z,81.16
2018-03-16T20:39:38.269Z,81.00
2018-03-16T20:42:06.089Z,80.72
2018-03-16T20:44:33.804Z,81.73
2018-03-16T20:47:01.712Z,81.54
2018-03-16T20:49:29.479Z,80.71
2018-03-16T20:51:58.264Z,81.02
2018-03-16T20:54:26.029Z,80.85
2018-03-16T20:56:53.895Z,80.65
2018-03-16T20:59:21.660Z,78.29
2018-03-16T21:01:49.424Z,78.10
2018-03-16T21:04:17.133Z,77.06
2018-03-16T21:06:44.953Z,77.27
2018-03-16T21:09:12.762Z,75.78
2018-03-16T21:11:40.483Z,75.69
2018-03-16T21:14:08.139Z,75.88
2018-03-16T21:16:35.809Z,73.62
2018-03-16T21:19:03.531Z,73.37
2018-03-16T21:21:31.339Z,72.63
2018-03-16T21:23:59.097Z,73.37
2018-03-16T21:26:26.966Z,72.80
2018-03-16T21:28:54.833Z,72.20
2018-03-16T21:31:22.799Z,72.12
2018-03-16T21:33:50.534Z,71.32
2018-03-16T21:36:18.275Z,70.80
2018-03-16T21:38:46.098Z,70.54
2018-03-16T21:41:13.960Z,70.70
2018-03-16T21:43:41.668Z,70.62
2018-03-16T21:46:09.387Z,70.71
2018-03-16T21:48:37.149Z,70.32
2018-03-16T21:51:04.919Z,71.01
2018-03-16T21:53:32.683Z,70.68
2018-03-16T21:56:00.499Z,70.16
2018-03-16T21:58:28.309Z,69.75
2018-03-16T22:00:56.158Z,70.20
2018-03-16T22:03:23.945Z,70.27
2018-03-16T22:05:51.705Z,69.87
2018-03-16T22:08:19.469Z,69.99
2018-03-16T22:10:47.260Z,70.11
2018-03-16T22:13:15.101Z,69.19
2018-03-16T22:15:42.865Z,70.08
2018-03-16T22:18:10.730Z,70.56
2018-03-16T22:20:38.435Z,71.06
2018-03-16T22:23:06.132Z,70.42
2018-03-16T22:25:33.920Z,69.75
2018-03-16T22:28:01.688Z,69.22
2018-03-16T22:30:29.449Z,69.19
2018-03-16T22:32:57.212Z,71.04
2018-03-16T22:35:24.824Z,71.39
2018-03-16T22:37:52.473Z,71.19
2018-03-16T22:40:20.084Z,70.58
2018-03-16T22:42:47.790Z,69.50
2018-03-16T22:45:15.522Z,69.45
2018-03-16T22:47:43.345Z,69.68
2018-03-16T22:50:11.153Z,69.12
2018-03-16T22:52:39.026Z,69.47
2018-03-16T22:55:06.845Z,68.70
2018-03-16T22:57:34.548Z,68.36
2018-03-16T23:00:02.312Z,68.55
2018-03-16T23:02:30.078Z,69.22
2018-03-16T23:04:57.947Z,68.74
2018-03-16T23:07:25.613Z,69.46
2018-03-16T23:09:53.378Z,69.71
2018-03-16T23:12:21.038Z,69.32
2018-03-16T23:14:48.898Z,69.38
2018-03-16T23:17:16.674Z,69.78
2018-03-16T23:19:44.321Z,68.50
2018-03-16T23:22:12.088Z,68.07
2018-03-16T23:24:39.934Z,68.26
2018-03-16T23:27:07.671Z,67.20
2018-03-16T23:29:35.484Z,66.75
2018-03-16T23:32:03.200Z,66.23
2018-03-16T23:34:30.908Z,65.63
2018-03-16T23:36:58.846Z,66.87
2018-03-16T23:39:26.613Z,67.29
2018-03-16T23:41:54.407Z,68.53
2018-03-16T23:44:22.135Z,68.60
2018-03-16T23:46:49.999Z,68.91
2018-03-16T23:49:17.904Z,69.56
2018-03-16T23:51:45.673Z,69.22
2018-03-16T23:54:13.434Z,69.01
2018-03-16T23:56:41.314Z,70.15
2018-03-16T23:59:09.064Z,68.83
